createdAt,value
2017-08-15T00:02:26.319Z,77.90
2017-08-15T00:04:53.913Z,77.70
2017-08-15T00:07:20.584Z,77.80
2017-08-15T00:09:47.312Z,77.80
2017-08-15T00:12:15.772Z,77.80
2017-08-15T00:14:42.657Z,77.80
2017-08-15T00:17:09.332Z,77.80
2017-08-15T00:19:36.040Z,77.80
2017-08-15T00:22:02.719Z,77.70
2017-08-15T00:24:29.421Z,77.70
2017-08-15T00:26:56.099Z,77.70
2017-08-15T00:29:22.782Z,77.70
2017-08-15T00:31:49.498Z,77.70
2017-08-15T00:34:16.169Z,77.40
2017-08-15T00:36:42.872Z,77.60
2017-08-15T00:39:09.536Z,77.60
2017-08-15T00:41:36.266Z,77.60
2017-08-15T00:44:02.948Z,77.60
2017-08-15T00:46:29.621Z,77.60
2017-08-15T00:48:56.336Z,77.60
2017-08-15T00:51:23.792Z,77.60
2017-08-15T00:53:50.889Z,77.50
2017-08-15T00:56:17.560Z,77.50
2017-08-15T00:58:44.265Z,77.40
2017-08-15T01:01:10.956Z,77.50
2017-08-15T01:06:18.509Z,77.30
2017-08-15T01:08:45.185Z,77.30
2017-08-15T01:11:11.891Z,77.30
2017-08-15T01:13:38.563Z,77.30
2017-08-15T01:16:05.256Z,77.30
2017-08-15T01:18:31.927Z,77.30
2017-08-15T01:20:58.616Z,77.30
2017-08-15T01:23:26.578Z,77.30
2017-08-15T01:25:53.528Z,77.20
2017-08-15T01:28:20.192Z,77.30
2017-08-15T01:30:46.866Z,77.20
2017-08-15T01:35:52.985Z,77.10
2017-08-15T01:38:20.201Z,77.30
2017-08-15T01:40:46.893Z,77.40
2017-08-15T01:43:13.602Z,77.30
2017-08-15T01:45:40.273Z,77.30
2017-08-15T01:48:06.958Z,77.40
2017-08-15T01:50:33.628Z,77.50
2017-08-15T01:53:00.344Z,77.30
2017-08-15T01:55:27.036Z,77.30
2017-08-15T01:57:53.688Z,77.20
2017-08-15T02:00:20.393Z,77.30
2017-08-15T02:02:47.056Z,77.10
2017-08-15T02:05:18.913Z,77.10
2017-08-15T02:07:45.577Z,77.30
2017-08-15T02:10:12.272Z,77.20
2017-08-15T02:12:38.951Z,77.10
2017-08-15T02:15:05.657Z,77.20
2017-08-15T02:17:32.312Z,77.20
2017-08-15T02:19:58.972Z,77.20
2017-08-15T02:22:25.689Z,77.10
2017-08-15T02:24:52.359Z,77.20
2017-08-15T02:27:19.060Z,77.20
2017-08-15T02:29:45.718Z,77.20
2017-08-15T02:32:12.413Z,77.20
2017-08-15T02:34:39.087Z,77.20
2017-08-15T02:37:06.181Z,77.10
2017-08-15T02:39:32.855Z,77.10
2017-08-15T02:41:59.517Z,77.10
2017-08-15T02:44:26.204Z,77.10
2017-08-15T02:46:52.876Z,77.10
2017-08-15T02:49:19.576Z,77.00
2017-08-15T02:51:46.248Z,77.00
2017-08-15T02:54:12.948Z,77.00
2017-08-15T02:56:39.624Z,77.00
2017-08-15T02:59:06.708Z,77.00
2017-08-15T03:01:33.517Z,76.90
2017-08-15T03:04:00.228Z,77.00
2017-08-15T03:06:26.904Z,77.00
2017-08-15T03:08:53.574Z,76.90
2017-08-15T03:11:20.688Z,76.90
2017-08-15T03:13:47.348Z,76.90
2017-08-15T03:16:14.036Z,77.00
2017-08-15T03:18:40.712Z,76.90
2017-08-15T03:21:07.408Z,77.10
2017-08-15T03:23:35.579Z,77.00
2017-08-15T03:26:02.302Z,76.80
2017-08-15T03:28:28.984Z,76.90
2017-08-15T03:30:55.669Z,76.90
2017-08-15T03:33:22.348Z,76.80
2017-08-15T03:35:50.471Z,76.90
2017-08-15T03:38:17.177Z,76.90
2017-08-15T03:40:44.236Z,76.90
2017-08-15T03:43:10.933Z,76.90
2017-08-15T03:45:37.608Z,76.90
2017-08-15T03:48:04.300Z,76.80
2017-08-15T03:50:30.964Z,76.90
2017-08-15T03:52:57.656Z,76.90
2017-08-15T03:55:24.329Z,76.90
2017-08-15T03:57:51.024Z,76.90
2017-08-15T04:00:17.692Z,76.90
2017-08-15T04:02:44.353Z,76.90
2017-08-15T04:05:11.063Z,76.90
2017-08-15T04:07:39.364Z,76.90
2017-08-15T04:10:06.064Z,76.90
2017-08-15T04:12:33.137Z,76.90
2017-08-15T04:14:59.844Z,76.90
2017-08-15T04:17:26.528Z,76.90
2017-08-15T04:19:53.215Z,76.90
2017-08-15T04:22:23.484Z,76.90
2017-08-15T04:24:50.179Z,76.80
2017-08-15T04:27:16.863Z,76.90
2017-08-15T04:29:43.525Z,76.90
2017-08-15T04:32:10.228Z,76.90
2017-08-15T04:34:36.905Z,76.70
2017-08-15T04:37:03.593Z,76.80
2017-08-15T04:39:30.268Z,76.80
2017-08-15T04:41:56.960Z,76.90
2017-08-15T04:44:23.625Z,76.90
2017-08-15T04:46:50.341Z,76.90
2017-08-15T04:49:17.008Z,76.80
2017-08-15T04:51:44.191Z,76.80
2017-08-15T04:54:11.615Z,76.90
2017-08-15T04:56:38.284Z,76.80
2017-08-15T04:59:04.992Z,76.90
2017-08-15T05:01:31.689Z,76.90
2017-08-15T05:03:58.381Z,76.80
2017-08-15T05:06:25.060Z,76.80
2017-08-15T05:08:51.769Z,76.80
2017-08-15T05:11:18.444Z,76.80
2017-08-15T05:13:45.104Z,76.80
2017-08-15T05:16:11.848Z,76.80
2017-08-15T05:18:38.521Z,76.80
2017-08-15T05:21:05.218Z,76.80
2017-08-15T05:23:31.877Z,76.80
2017-08-15T05:25:58.575Z,76.70
2017-08-15T05:28:25.238Z,76.80
2017-08-15T05:30:51.932Z,76.80
2017-08-15T05:35:58.292Z,76.70
2017-08-15T05:38:24.956Z,76.70
2017-08-15T05:40:51.628Z,76.80
2017-08-15T05:43:18.311Z,76.70
2017-08-15T05:45:45.016Z,76.80
2017-08-15T05:48:11.704Z,76.60
2017-08-15T05:50:38.368Z,76.70
2017-08-15T05:53:05.473Z,76.50
2017-08-15T05:55:32.532Z,76.60
2017-08-15T05:57:59.240Z,76.70
2017-08-15T06:00:26.500Z,76.80
2017-08-15T06:05:32.060Z,76.60
2017-08-15T06:07:58.727Z,76.90
2017-08-15T06:10:25.423Z,76.90
2017-08-15T06:12:52.088Z,76.90
2017-08-15T06:15:18.812Z,76.90
2017-08-15T06:17:46.064Z,77.10
2017-08-15T06:20:12.764Z,77.10
2017-08-15T06:22:39.442Z,77.10
2017-08-15T06:25:06.200Z,77.00
2017-08-15T06:27:32.868Z,76.90
2017-08-15T06:29:59.533Z,77.20
2017-08-15T06:32:26.299Z,77.20
2017-08-15T06:34:52.975Z,77.10
2017-08-15T06:37:19.669Z,77.20
2017-08-15T06:39:46.370Z,77.20
2017-08-15T06:42:13.056Z,77.20
2017-08-15T06:44:39.727Z,77.20
2017-08-15T06:47:07.232Z,77.20
2017-08-15T06:49:33.893Z,77.20
2017-08-15T06:52:00.606Z,77.20
2017-08-15T06:54:28.080Z,77.20
2017-08-15T06:56:54.781Z,77.30
2017-08-15T06:59:21.688Z,77.30
2017-08-15T07:01:48.359Z,77.30
2017-08-15T07:04:15.043Z,77.30
2017-08-15T07:06:42.109Z,77.30
2017-08-15T07:09:08.800Z,77.30
2017-08-15T07:11:35.476Z,77.30
2017-08-15T07:14:03.829Z,77.30
2017-08-15T07:16:30.901Z,77.30
2017-08-15T07:19:04.449Z,77.40
2017-08-15T07:21:33.697Z,77.40
2017-08-15T07:24:00.359Z,77.30
2017-08-15T07:26:30.216Z,77.30
2017-08-15T07:28:56.885Z,77.30
2017-08-15T07:31:23.567Z,77.30
2017-08-15T07:33:50.234Z,77.40
2017-08-15T07:36:16.932Z,77.40
2017-08-15T07:38:43.592Z,77.40
2017-08-15T07:41:10.295Z,77.40
2017-08-15T07:43:37.493Z,77.40
2017-08-15T07:46:04.183Z,77.50
2017-08-15T07:48:31.408Z,77.40
2017-08-15T07:50:58.107Z,77.50
2017-08-15T07:53:24.787Z,77.50
2017-08-15T07:55:51.448Z,77.50
2017-08-15T07:58:18.660Z,77.50
2017-08-15T08:00:45.733Z,77.50
2017-08-15T08:03:12.428Z,77.50
2017-08-15T08:05:39.096Z,77.50
2017-08-15T08:08:05.792Z,77.50
2017-08-15T08:10:33.183Z,77.50
2017-08-15T08:12:59.864Z,77.60
2017-08-15T08:15:26.532Z,77.60
2017-08-15T08:17:53.255Z,77.50
2017-08-15T08:20:19.921Z,77.50
2017-08-15T08:22:46.628Z,77.50
2017-08-15T08:25:13.311Z,77.60
2017-08-15T08:27:39.982Z,77.60
2017-08-15T08:30:06.664Z,77.60
2017-08-15T08:32:33.324Z,77.70
2017-08-15T08:35:00.640Z,77.70
2017-08-15T08:37:27.307Z,77.70
2017-08-15T08:39:54.231Z,77.70
2017-08-15T08:42:20.904Z,77.70
2017-08-15T08:44:47.600Z,77.80
2017-08-15T08:47:14.300Z,77.80
2017-08-15T08:49:40.957Z,77.90
2017-08-15T08:52:09.688Z,77.90
2017-08-15T08:54:36.356Z,77.80
2017-08-15T08:57:03.060Z,77.90
2017-08-15T08:59:30.488Z,78.00
2017-08-15T09:01:57.219Z,77.90
2017-08-15T09:04:23.911Z,77.70
2017-08-15T09:06:50.602Z,77.90
2017-08-15T09:09:18.024Z,77.90
2017-08-15T09:11:47.952Z,78.00
2017-08-15T09:14:14.678Z,78.00
2017-08-15T09:16:41.340Z,78.10
2017-08-15T09:19:08.057Z,78.10
2017-08-15T09:21:34.721Z,78.10
2017-08-15T09:24:02.508Z,78.20
2017-08-15T09:26:29.224Z,78.10
2017-08-15T09:29:02.212Z,78.30
2017-08-15T09:31:28.924Z,78.20
2017-08-15T09:33:55.597Z,78.10
2017-08-15T09:36:22.289Z,78.30
2017-08-15T09:38:49.344Z,78.30
2017-08-15T09:41:16.057Z,78.30
2017-08-15T09:43:42.728Z,78.30
2017-08-15T09:46:09.724Z,78.40
2017-08-15T09:48:36.419Z,78.40
2017-08-15T09:51:03.088Z,78.30
2017-08-15T09:53:29.784Z,78.50
2017-08-15T09:55:56.449Z,78.20
2017-08-15T09:58:29.080Z,78.30
2017-08-15T10:00:56.148Z,78.50
2017-08-15T10:06:03.804Z,78.50
2017-08-15T10:08:32.394Z,78.50
2017-08-15T10:10:59.075Z,78.50
2017-08-15T10:13:27.877Z,78.50
2017-08-15T10:15:54.560Z,78.60
2017-08-15T10:18:21.224Z,78.70
2017-08-15T10:20:47.920Z,78.60
2017-08-15T10:23:16.561Z,78.70
2017-08-15T10:25:43.264Z,78.70
2017-08-15T10:28:11.408Z,78.70
2017-08-15T10:30:38.103Z,78.70
2017-08-15T10:35:45.540Z,78.70
2017-08-15T10:38:12.220Z,78.70
2017-08-15T10:40:38.876Z,78.70
2017-08-15T10:43:05.568Z,78.80
2017-08-15T10:45:36.015Z,78.80
2017-08-15T10:48:02.839Z,78.80
2017-08-15T10:50:29.524Z,78.80
2017-08-15T10:52:56.218Z,78.70
2017-08-15T10:55:22.875Z,78.70
2017-08-15T10:57:49.568Z,78.80
2017-08-15T11:00:16.229Z,78.80
2017-08-15T11:02:42.942Z,78.80
2017-08-15T11:05:09.609Z,78.80
2017-08-15T11:07:36.276Z,78.80
2017-08-15T11:10:02.969Z,78.70
2017-08-15T11:12:31.280Z,78.70
2017-08-15T11:14:58.609Z,78.90
2017-08-15T11:17:27.297Z,78.80
2017-08-15T11:19:54.008Z,78.80
2017-08-15T11:22:20.679Z,78.80
2017-08-15T11:24:48.820Z,78.70
2017-08-15T11:27:15.512Z,78.70
2017-08-15T11:29:42.745Z,78.90
2017-08-15T11:32:09.436Z,78.90
2017-08-15T11:34:36.108Z,78.60
2017-08-15T11:37:04.328Z,78.80
2017-08-15T11:39:30.992Z,78.80
2017-08-15T11:41:58.418Z,78.80
2017-08-15T11:44:25.084Z,78.90
2017-08-15T11:46:52.584Z,78.90
2017-08-15T11:49:20.065Z,78.90
2017-08-15T11:51:46.740Z,78.90
2017-08-15T11:54:15.420Z,78.90
2017-08-15T11:56:42.084Z,78.90
2017-08-15T11:59:08.828Z,78.90
2017-08-15T12:01:35.492Z,79.00
2017-08-15T12:04:02.188Z,78.90
2017-08-15T12:06:28.856Z,78.90
2017-08-15T12:08:55.567Z,78.90
2017-08-15T12:11:22.356Z,79.10
2017-08-15T12:13:49.019Z,78.90
2017-08-15T12:16:16.936Z,78.90
2017-08-15T12:18:44.353Z,79.00
2017-08-15T12:21:11.035Z,79.00
2017-08-15T12:23:37.700Z,78.90
2017-08-15T12:26:04.388Z,78.80
2017-08-15T12:28:31.048Z,78.90
2017-08-15T12:30:57.757Z,79.00
2017-08-15T12:33:24.448Z,78.90
2017-08-15T12:35:52.648Z,79.10
2017-08-15T12:38:19.966Z,78.90
2017-08-15T12:40:46.648Z,79.00
2017-08-15T12:43:13.335Z,79.00
2017-08-15T12:45:40.001Z,78.90
2017-08-15T12:48:07.100Z,79.00
2017-08-15T12:50:33.763Z,78.90
2017-08-15T12:53:00.457Z,78.90
2017-08-15T12:55:27.160Z,78.90
2017-08-15T12:57:53.841Z,79.00
2017-08-15T13:00:20.532Z,79.00
2017-08-15T13:02:47.235Z,79.00
2017-08-15T13:05:13.936Z,78.70
2017-08-15T13:07:40.603Z,78.90
2017-08-15T13:10:07.312Z,78.70
2017-08-15T13:12:33.975Z,79.00
2017-08-15T13:15:00.639Z,78.90
2017-08-15T13:17:27.324Z,79.00
2017-08-15T13:19:54.000Z,78.90
2017-08-15T13:22:21.084Z,78.90
2017-08-15T13:24:47.978Z,78.80
2017-08-15T13:27:14.948Z,78.90
2017-08-15T13:29:41.617Z,78.80
2017-08-15T13:32:08.308Z,79.10
2017-08-15T13:34:34.980Z,78.80
2017-08-15T13:37:01.691Z,78.70
2017-08-15T13:39:28.355Z,79.00
2017-08-15T13:41:55.032Z,78.80
2017-08-15T13:44:21.724Z,79.00
2017-08-15T13:46:48.785Z,79.20
2017-08-15T13:49:15.486Z,78.90
2017-08-15T13:51:42.172Z,79.10
2017-08-15T13:54:09.282Z,79.00
2017-08-15T13:56:35.963Z,78.80
2017-08-15T13:59:03.220Z,79.00
2017-08-15T14:01:29.883Z,79.10
2017-08-15T14:06:31.284Z,78.70
2017-08-15T14:08:57.969Z,78.90
2017-08-15T14:11:24.704Z,78.80
2017-08-15T14:13:51.372Z,78.60
2017-08-15T14:16:18.072Z,79.10
2017-08-15T14:18:44.760Z,79.00
2017-08-15T14:21:11.468Z,78.80
2017-08-15T14:23:38.136Z,79.00
2017-08-15T14:26:04.824Z,78.90
2017-08-15T14:28:31.500Z,78.90
2017-08-15T14:30:58.172Z,78.70
2017-08-15T14:33:24.868Z,79.20
2017-08-15T14:35:51.524Z,79.10
2017-08-15T14:38:18.227Z,78.90
2017-08-15T14:40:44.896Z,79.20
2017-08-15T14:43:11.599Z,79.20
2017-08-15T14:45:38.256Z,79.10
2017-08-15T14:48:04.981Z,79.20
2017-08-15T14:50:31.655Z,79.10
2017-08-15T14:52:58.312Z,79.20
2017-08-15T14:55:25.020Z,79.20
2017-08-15T14:57:51.687Z,79.20
2017-08-15T15:00:18.373Z,79.30
2017-08-15T15:02:45.043Z,79.20
2017-08-15T15:05:11.740Z,79.10
2017-08-15T15:07:38.397Z,79.20
2017-08-15T15:10:05.112Z,79.20
2017-08-15T15:12:31.777Z,79.40
2017-08-15T15:14:58.441Z,79.40
2017-08-15T15:17:25.140Z,79.30
2017-08-15T15:19:51.815Z,79.30
2017-08-15T15:22:19.236Z,79.40
2017-08-15T15:24:45.900Z,79.30
2017-08-15T15:27:12.996Z,79.30
2017-08-15T15:29:39.660Z,79.30
2017-08-15T15:32:06.351Z,79.30
2017-08-15T15:34:33.024Z,79.20
2017-08-15T15:36:59.692Z,79.40
2017-08-15T15:39:26.400Z,79.30
2017-08-15T15:41:53.067Z,79.40
2017-08-15T15:44:19.805Z,79.50
2017-08-15T15:46:47.234Z,79.40
2017-08-15T15:49:14.319Z,79.40
2017-08-15T15:51:41.404Z,79.50
2017-08-15T15:54:09.151Z,79.40
2017-08-15T15:56:36.264Z,79.40
2017-08-15T15:59:02.949Z,79.40
2017-08-15T16:01:29.642Z,79.50
2017-08-15T16:06:36.530Z,79.40
2017-08-15T16:09:03.217Z,79.40
2017-08-15T16:11:29.916Z,79.50
2017-08-15T16:13:56.589Z,79.50
2017-08-15T16:16:24.274Z,79.40
2017-08-15T16:18:50.976Z,79.40
2017-08-15T16:21:18.128Z,79.60
2017-08-15T16:23:44.840Z,79.50
2017-08-15T16:26:11.512Z,79.40
2017-08-15T16:28:38.240Z,79.50
2017-08-15T16:31:04.912Z,79.50
2017-08-15T16:33:32.023Z,79.50
2017-08-15T16:35:58.702Z,79.50
2017-08-15T16:38:25.368Z,79.50
2017-08-15T16:40:52.056Z,79.50
2017-08-15T16:43:18.725Z,79.50
2017-08-15T16:45:45.424Z,79.60
2017-08-15T16:48:12.094Z,79.50
2017-08-15T16:50:38.792Z,79.60
2017-08-15T16:53:05.470Z,79.60
2017-08-15T16:55:32.159Z,79.50
2017-08-15T16:57:58.863Z,79.60
2017-08-15T17:00:25.574Z,79.60
2017-08-15T17:02:52.236Z,79.50
2017-08-15T17:05:18.920Z,79.50
2017-08-15T17:10:18.085Z,79.50
2017-08-15T17:12:44.786Z,79.50
2017-08-15T17:15:11.464Z,79.60
2017-08-15T17:17:38.153Z,79.50
2017-08-15T17:20:04.836Z,79.50
2017-08-15T17:22:31.532Z,79.50
2017-08-15T17:24:58.221Z,79.50
2017-08-15T17:27:24.896Z,79.50
2017-08-15T17:29:51.632Z,79.60
2017-08-15T17:32:18.299Z,79.60
2017-08-15T17:34:45.004Z,79.40
2017-08-15T17:37:11.673Z,79.50
2017-08-15T17:39:38.376Z,79.60
2017-08-15T17:42:05.044Z,79.60
2017-08-15T17:44:31.772Z,79.60
2017-08-15T17:46:58.432Z,79.60
2017-08-15T17:49:25.144Z,79.70
2017-08-15T17:51:51.816Z,79.60
2017-08-15T17:54:18.492Z,79.70
2017-08-15T17:56:45.584Z,79.70
2017-08-15T17:59:12.987Z,79.80
2017-08-15T18:01:39.716Z,79.80
2017-08-15T18:06:39.067Z,79.70
2017-08-15T18:09:05.744Z,79.80
2017-08-15T18:11:32.504Z,79.70
2017-08-15T18:13:59.177Z,79.80
2017-08-15T18:16:26.413Z,79.80
2017-08-15T18:18:53.081Z,79.80
2017-08-15T18:21:19.759Z,79.90
2017-08-15T18:23:48.191Z,79.80
2017-08-15T18:26:14.876Z,79.80
2017-08-15T18:28:41.617Z,79.90
2017-08-15T18:31:08.293Z,79.90
2017-08-15T18:36:14.096Z,79.80
2017-08-15T18:38:41.780Z,79.90
2017-08-15T18:41:08.464Z,79.90
2017-08-15T18:43:35.180Z,79.90
2017-08-15T18:46:01.860Z,79.90
2017-08-15T18:48:31.284Z,80.00
2017-08-15T18:50:57.977Z,80.00
2017-08-15T18:53:24.653Z,79.90
2017-08-15T18:55:51.367Z,79.90
2017-08-15T18:58:18.060Z,79.90
2017-08-15T19:00:45.507Z,79.90
2017-08-15T19:05:53.186Z,79.90
2017-08-15T19:08:19.845Z,80.00
2017-08-15T19:10:46.562Z,80.00
2017-08-15T19:13:20.550Z,80.00
2017-08-15T19:15:47.278Z,80.00
2017-08-15T19:18:13.971Z,80.10
2017-08-15T19:20:40.657Z,80.10
2017-08-15T19:23:07.362Z,80.10
2017-08-15T19:25:34.479Z,80.10
2017-08-15T19:28:02.401Z,80.00
2017-08-15T19:30:29.085Z,80.10
2017-08-15T19:32:55.790Z,80.10
2017-08-15T19:35:22.494Z,80.00
2017-08-15T19:37:49.995Z,80.10
2017-08-15T19:40:16.696Z,80.10
2017-08-15T19:42:44.306Z,80.10
2017-08-15T19:45:10.999Z,80.10
2017-08-15T19:47:38.338Z,80.20
2017-08-15T19:50:05.034Z,80.10
2017-08-15T19:52:31.718Z,80.10
2017-08-15T19:54:58.432Z,80.10
2017-08-15T19:57:25.130Z,80.20
2017-08-15T19:59:52.378Z,80.20
2017-08-15T20:02:19.053Z,80.10
2017-08-15T20:04:45.779Z,80.00
2017-08-15T20:07:12.484Z,80.10
2017-08-15T20:12:07.561Z,80.20
2017-08-15T20:14:35.394Z,80.30
2017-08-15T20:17:02.075Z,80.30
2017-08-15T20:19:28.766Z,80.30
2017-08-15T20:21:55.482Z,80.20
2017-08-15T20:24:22.166Z,80.20
2017-08-15T20:26:48.902Z,80.20
2017-08-15T20:29:16.396Z,80.20
2017-08-15T20:31:43.486Z,80.30
2017-08-15T20:34:15.719Z,80.00
2017-08-15T20:36:42.431Z,80.20
2017-08-15T20:39:09.191Z,80.20
2017-08-15T20:41:35.910Z,80.20
2017-08-15T20:44:02.586Z,80.40
2017-08-15T20:46:29.630Z,80.40
2017-08-15T20:48:57.107Z,80.30
2017-08-15T20:51:23.795Z,80.30
2017-08-15T20:53:50.510Z,80.30
2017-08-15T20:56:17.191Z,80.40
2017-08-15T20:58:43.906Z,80.30
2017-08-15T21:01:10.577Z,80.40
2017-08-15T21:06:17.586Z,80.30
2017-08-15T21:08:44.310Z,80.40
2017-08-15T21:11:10.993Z,80.50
2017-08-15T21:13:37.662Z,80.50
2017-08-15T21:16:04.382Z,80.60
2017-08-15T21:18:31.064Z,80.60
2017-08-15T21:20:58.215Z,80.60
2017-08-15T21:23:24.890Z,80.70
2017-08-15T21:25:51.614Z,80.60
2017-08-15T21:28:18.290Z,80.60
2017-08-15T21:30:45.022Z,80.60
2017-08-15T21:33:11.714Z,80.70
2017-08-15T21:35:38.452Z,80.70
2017-08-15T21:38:05.142Z,80.70
2017-08-15T21:40:31.839Z,80.80
2017-08-15T21:42:58.542Z,80.70
2017-08-15T21:45:25.235Z,80.80
2017-08-15T21:47:51.983Z,80.90
2017-08-15T21:50:18.666Z,80.80
2017-08-15T21:52:45.390Z,80.80
2017-08-15T21:55:12.082Z,80.80
2017-08-15T21:57:38.802Z,80.80
2017-08-15T22:00:05.489Z,80.70
2017-08-15T22:02:32.170Z,80.70
2017-08-15T22:04:58.874Z,80.50
2017-08-15T22:07:25.543Z,80.70
2017-08-15T22:09:52.301Z,80.70
2017-08-15T22:12:19.014Z,80.80
2017-08-15T22:14:45.735Z,80.80
2017-08-15T22:17:12.426Z,80.70
2017-08-15T22:19:39.143Z,80.70
2017-08-15T22:22:06.222Z,80.80
2017-08-15T22:24:32.930Z,80.90
2017-08-15T22:26:59.641Z,80.80
2017-08-15T22:29:27.271Z,80.80
2017-08-15T22:31:53.986Z,80.70
2017-08-15T22:34:20.688Z,80.30
2017-08-15T22:36:47.406Z,80.70
2017-08-15T22:39:14.090Z,80.20
2017-08-15T22:41:40.814Z,80.60
2017-08-15T22:44:07.494Z,80.20
2017-08-15T22:46:34.206Z,80.70
2017-08-15T22:49:00.908Z,80.70
2017-08-15T22:51:27.670Z,80.50
2017-08-15T22:53:54.355Z,80.60
2017-08-15T22:56:21.449Z,80.30
2017-08-15T22:58:48.178Z,80.00
2017-08-15T23:01:14.862Z,79.90
2017-08-15T23:03:41.573Z,79.80
2017-08-15T23:06:09.023Z,79.50
2017-08-15T23:08:35.734Z,79.30
2017-08-15T23:11:02.426Z,79.30
2017-08-15T23:13:29.170Z,79.50
2017-08-15T23:15:55.849Z,79.20
2017-08-15T23:18:22.569Z,79.10
2017-08-15T23:20:49.254Z,79.10
2017-08-15T23:23:15.949Z,79.20
2017-08-15T23:25:42.662Z,79.10
2017-08-15T23:28:09.350Z,79.20
2017-08-15T23:30:36.066Z,79.30
2017-08-15T23:33:02.799Z,79.40
2017-08-15T23:35:29.523Z,79.40
2017-08-15T23:37:56.214Z,79.60
2017-08-15T23:40:22.942Z,79.70
2017-08-15T23:42:49.626Z,79.30
2017-08-15T23:45:17.131Z,79.30
2017-08-15T23:47:43.845Z,79.30
2017-08-15T23:50:10.534Z,79.40
2017-08-15T23:52:37.258Z,79.40
2017-08-15T23:55:03.941Z,79.40
2017-08-15T23:57:30.663Z,79.30
2017-08-15T23:59:57.372Z,79.30
